createdAt,value
2023-01-22T00:02:21.453Z,6.10
2023-01-22T00:04:50.940Z,3.03
2023-01-22T00:07:21.625Z,6.63
2023-01-22T00:09:50.704Z,7.00
2023-01-22T00:12:19.832Z,6.88
2023-01-22T00:14:49.937Z,7.03
2023-01-22T00:17:19.213Z,7.25
2023-01-22T00:19:48.419Z,5.05
2023-01-22T00:22:17.711Z,4.22
2023-01-22T00:24:48.291Z,5.47
2023-01-22T00:27:17.434Z,5.78
2023-01-22T00:29:46.537Z,9.13
2023-01-22T00:32:15.857Z,6.07
2023-01-22T00:34:52.370Z,8.48
2023-01-22T00:37:21.810Z,5.90
2023-01-22T00:39:52.336Z,5.35
2023-01-22T00:42:23.388Z,5.30
2023-01-22T00:44:52.497Z,6.30
2023-01-22T00:47:21.717Z,7.90
2023-01-22T00:49:50.930Z,6.53
2023-01-22T00:52:20.082Z,4.63
2023-01-22T00:54:49.372Z,6.50
2023-01-22T00:57:22.005Z,7.85
2023-01-22T00:59:52.337Z,6.50
2023-01-22T01:02:21.810Z,6.18
2023-01-22T01:04:51.120Z,7.18
2023-01-22T01:07:20.397Z,5.05
2023-01-22T01:09:49.583Z,6.88
2023-01-22T01:12:20.443Z,7.03
2023-01-22T01:14:50.802Z,5.43
2023-01-22T01:17:19.895Z,6.15
2023-01-22T01:19:49.069Z,7.85
2023-01-22T01:22:18.175Z,5.43
2023-01-22T01:24:47.505Z,6.88
2023-01-22T01:27:19.300Z,6.47
2023-01-22T01:29:48.532Z,4.45
2023-01-22T01:32:17.729Z,12.35
2023-01-22T01:34:48.076Z,4.00
2023-01-22T01:37:17.449Z,3.72
2023-01-22T01:39:48.058Z,6.95
2023-01-22T01:42:22.441Z,5.43
2023-01-22T01:45:44.085Z,6.10
2023-01-22T01:48:32.954Z,6.05
2023-01-22T01:51:07.659Z,3.97
2023-01-22T01:53:37.764Z,3.95
2023-01-22T01:56:12.601Z,6.47
2023-01-22T01:58:44.065Z,4.22
2023-01-22T02:01:16.592Z,3.38
2023-01-22T02:03:48.763Z,4.00
2023-01-22T02:06:20.245Z,4.57
2023-01-22T02:08:51.579Z,5.07
2023-01-22T02:11:22.189Z,4.38
2023-01-22T02:13:55.206Z,6.03
2023-01-22T02:16:24.613Z,4.80
2023-01-22T02:18:55.363Z,4.85
2023-01-22T02:21:36.955Z,4.85
2023-01-22T02:24:08.188Z,3.95
2023-01-22T02:26:38.212Z,5.80
2023-01-22T02:29:08.164Z,5.85
2023-01-22T02:31:39.192Z,4.28
2023-01-22T02:34:10.198Z,3.78
2023-01-22T02:36:41.786Z,4.15
2023-01-22T02:39:11.262Z,4.53
2023-01-22T02:41:40.728Z,4.97
2023-01-22T02:44:13.075Z,3.80
2023-01-22T02:46:44.132Z,4.10
2023-01-22T02:49:13.967Z,4.28
2023-01-22T02:51:44.807Z,5.13
2023-01-22T02:54:14.453Z,3.88
2023-01-22T02:56:43.896Z,3.83
2023-01-22T02:59:13.225Z,3.08
2023-01-22T03:01:42.465Z,3.75
2023-01-22T03:04:11.961Z,4.10
2023-01-22T03:06:42.648Z,9.82
2023-01-22T03:09:15.260Z,6.68
2023-01-22T03:11:49.616Z,3.30
2023-01-22T03:14:43.813Z,2.78
2023-01-22T03:17:30.384Z,2.72
2023-01-22T03:20:19.151Z,2.90
2023-01-22T03:22:49.918Z,3.53
2023-01-22T03:25:20.612Z,3.72
2023-01-22T03:28:07.840Z,8.55
2023-01-22T03:30:39.893Z,2.85
2023-01-22T03:33:10.172Z,2.95
2023-01-22T03:35:39.927Z,3.22
2023-01-22T03:38:17.564Z,4.80
2023-01-22T03:40:48.342Z,2.50
2023-01-22T03:43:17.600Z,4.00
2023-01-22T03:45:46.941Z,6.53
2023-01-22T03:48:18.405Z,3.97
2023-01-22T03:50:49.478Z,3.78
2023-01-22T03:53:18.761Z,6.57
2023-01-22T03:55:57.497Z,4.85
2023-01-22T03:58:26.941Z,3.60
2023-01-22T04:00:57.973Z,4.88
2023-01-22T04:03:28.997Z,3.88
2023-01-22T04:06:00.518Z,3.65
2023-01-22T04:08:31.727Z,3.72
2023-01-22T04:11:03.525Z,7.32
2023-01-22T04:13:34.554Z,4.28
2023-01-22T04:16:05.154Z,3.50
2023-01-22T04:18:54.254Z,3.67
2023-01-22T04:21:35.755Z,3.72
2023-01-22T04:24:08.765Z,4.13
2023-01-22T04:26:39.490Z,4.20
2023-01-22T04:29:10.042Z,3.80
2023-01-22T04:31:39.272Z,5.47
2023-01-22T04:34:17.311Z,3.60
2023-01-22T04:36:51.652Z,5.97
2023-01-22T04:39:20.896Z,4.30
2023-01-22T04:41:51.637Z,6.45
2023-01-22T04:44:21.627Z,4.38
2023-01-22T04:46:51.527Z,5.05
2023-01-22T04:49:20.688Z,4.70
2023-01-22T04:51:54.222Z,4.30
2023-01-22T04:54:23.577Z,5.93
2023-01-22T04:56:54.167Z,4.75
2023-01-22T04:59:23.458Z,6.35
2023-01-22T05:01:52.992Z,5.60
2023-01-22T05:04:24.173Z,6.07
2023-01-22T05:06:53.628Z,6.53
2023-01-22T05:09:24.675Z,5.13
2023-01-22T05:11:57.612Z,6.38
2023-01-22T05:14:27.882Z,5.00
2023-01-22T05:16:57.383Z,5.05
2023-01-22T05:19:26.506Z,5.60
2023-01-22T05:21:55.641Z,5.78
2023-01-22T05:24:25.195Z,11.50
2023-01-22T05:26:56.405Z,4.82
2023-01-22T05:29:35.718Z,5.20
2023-01-22T05:32:19.816Z,7.90
2023-01-22T05:34:55.315Z,5.15
2023-01-22T05:37:24.515Z,5.05
2023-01-22T05:39:53.921Z,8.05
2023-01-22T05:42:24.527Z,4.82
2023-01-22T05:44:53.682Z,6.88
2023-01-22T05:47:26.151Z,8.25
2023-01-22T05:50:19.656Z,4.65
2023-01-22T05:52:49.101Z,7.13
2023-01-22T05:55:18.816Z,5.22
2023-01-22T05:57:50.232Z,7.53
2023-01-22T06:00:23.969Z,7.80
2023-01-22T06:03:00.092Z,6.70
2023-01-22T06:05:31.699Z,5.50
2023-01-22T06:08:07.175Z,5.28
2023-01-22T06:10:43.902Z,8.73
2023-01-22T06:13:14.552Z,4.85
2023-01-22T06:15:45.546Z,8.00
2023-01-22T06:18:35.664Z,5.85
2023-01-22T06:21:09.065Z,7.10
2023-01-22T06:23:38.343Z,6.95
2023-01-22T06:26:09.074Z,5.15
2023-01-22T06:28:39.730Z,7.25
2023-01-22T06:31:09.155Z,6.75
2023-01-22T06:33:41.277Z,6.90
2023-01-22T06:36:11.087Z,8.55
2023-01-22T06:38:40.545Z,5.85
2023-01-22T06:41:11.651Z,10.25
2023-01-22T06:43:42.253Z,8.65
2023-01-22T06:46:11.878Z,9.10
2023-01-22T06:49:13.712Z,7.97
2023-01-22T06:51:42.977Z,8.38
2023-01-22T06:54:14.879Z,5.38
2023-01-22T06:56:44.120Z,7.20
2023-01-22T06:59:16.667Z,7.63
2023-01-22T07:01:45.821Z,5.88
2023-01-22T07:04:14.941Z,9.63
2023-01-22T07:06:44.133Z,10.32
2023-01-22T07:09:13.291Z,6.70
2023-01-22T07:11:42.524Z,7.60
2023-01-22T07:14:11.754Z,6.53
2023-01-22T07:17:09.560Z,6.75
2023-01-22T07:19:38.708Z,7.53
2023-01-22T07:22:07.995Z,9.27
2023-01-22T07:24:37.155Z,8.27
2023-01-22T07:27:06.522Z,6.50
2023-01-22T07:29:35.885Z,6.68
2023-01-22T07:32:05.169Z,8.93
2023-01-22T07:34:37.531Z,7.30
2023-01-22T07:37:06.753Z,7.40
2023-01-22T07:39:36.808Z,7.78
2023-01-22T07:42:06.160Z,7.97
2023-01-22T07:44:37.119Z,7.10
2023-01-22T07:47:06.367Z,8.93
2023-01-22T07:49:37.340Z,6.03
2023-01-22T07:52:06.851Z,7.43
2023-01-22T07:54:36.692Z,6.90
2023-01-22T07:57:06.466Z,8.30
2023-01-22T07:59:37.660Z,6.80
2023-01-22T08:02:06.910Z,9.27
2023-01-22T08:04:37.576Z,7.72
2023-01-22T08:07:06.753Z,7.40
2023-01-22T08:09:38.404Z,7.50
2023-01-22T08:12:07.783Z,6.97
2023-01-22T08:14:37.101Z,7.15
2023-01-22T08:17:06.336Z,6.85
2023-01-22T08:19:37.010Z,7.80
2023-01-22T08:22:07.090Z,10.23
2023-01-22T08:24:36.596Z,7.82
2023-01-22T08:27:05.968Z,8.13
2023-01-22T08:29:35.210Z,9.40
2023-01-22T08:32:04.727Z,7.65
2023-01-22T08:34:33.987Z,10.50
2023-01-22T08:37:04.813Z,6.00
2023-01-22T08:39:34.344Z,8.07
2023-01-22T08:42:04.697Z,10.60
2023-01-22T08:44:33.891Z,6.95
2023-01-22T08:47:03.172Z,9.88
2023-01-22T08:49:32.311Z,8.80
2023-01-22T08:52:01.637Z,9.70
2023-01-22T08:54:32.229Z,6.45
2023-01-22T08:57:01.393Z,10.68
2023-01-22T08:59:31.166Z,10.82
2023-01-22T09:02:00.666Z,12.00
2023-01-22T09:04:30.250Z,6.88
2023-01-22T09:06:59.651Z,13.52
2023-01-22T09:09:30.512Z,10.75
2023-01-22T09:11:59.726Z,8.48
2023-01-22T09:14:28.883Z,8.05
2023-01-22T09:16:58.144Z,8.27
2023-01-22T09:19:27.463Z,9.77
2023-01-22T09:21:56.692Z,8.95
2023-01-22T09:24:25.849Z,8.38
2023-01-22T09:26:56.511Z,8.63
2023-01-22T09:29:25.702Z,9.60
2023-01-22T09:31:55.128Z,10.25
2023-01-22T09:34:24.278Z,13.75
2023-01-22T09:36:53.668Z,10.95
2023-01-22T09:39:22.874Z,10.07
2023-01-22T09:41:56.768Z,7.40
2023-01-22T09:44:33.638Z,7.80
2023-01-22T09:47:07.879Z,12.20
2023-01-22T09:49:45.119Z,8.65
2023-01-22T09:52:14.360Z,13.80
2023-01-22T09:54:43.921Z,8.18
2023-01-22T09:57:30.791Z,12.68
2023-01-22T10:00:00.729Z,8.77
2023-01-22T10:02:36.029Z,11.07
2023-01-22T10:05:21.504Z,8.95
2023-01-22T10:07:55.736Z,11.52
2023-01-22T10:10:53.665Z,11.05
2023-01-22T10:13:25.750Z,9.73
2023-01-22T10:15:56.678Z,8.68
2023-01-22T10:18:34.763Z,7.07
2023-01-22T10:21:07.566Z,8.73
2023-01-22T10:23:36.952Z,11.27
2023-01-22T10:26:18.178Z,12.88
2023-01-22T10:28:52.074Z,8.82
2023-01-22T10:31:27.804Z,9.13
2023-01-22T10:34:01.552Z,15.77
2023-01-22T10:36:31.992Z,11.35
2023-01-22T10:39:14.207Z,12.27
2023-01-22T10:41:44.153Z,9.32
2023-01-22T10:44:22.740Z,10.23
2023-01-22T10:46:52.596Z,13.95
2023-01-22T10:49:24.471Z,8.95
2023-01-22T10:51:56.523Z,8.07
2023-01-22T10:54:31.386Z,13.10
2023-01-22T10:57:11.794Z,10.70
2023-01-22T10:59:49.191Z,8.82
2023-01-22T11:02:22.924Z,11.98
2023-01-22T11:04:52.590Z,10.93
2023-01-22T11:07:25.645Z,12.73
2023-01-22T11:10:10.520Z,13.15
2023-01-22T11:12:45.611Z,10.93
2023-01-22T11:15:23.499Z,11.40
2023-01-22T11:17:54.484Z,11.55
2023-01-22T11:20:27.472Z,10.23
2023-01-22T11:23:06.973Z,9.65
2023-01-22T11:25:43.401Z,13.63
2023-01-22T11:28:27.278Z,9.60
2023-01-22T11:31:30.815Z,12.95
2023-01-22T11:34:24.493Z,12.77
2023-01-22T11:37:02.043Z,10.60
2023-01-22T11:39:52.546Z,13.25
2023-01-22T11:42:33.373Z,8.30
2023-01-22T11:45:26.842Z,13.75
2023-01-22T11:48:15.632Z,14.65
2023-01-22T11:50:53.630Z,11.15
2023-01-22T11:53:44.613Z,13.45
2023-01-22T11:56:37.459Z,15.93
2023-01-22T11:59:13.036Z,11.80
2023-01-22T12:02:02.963Z,10.82
2023-01-22T12:04:59.408Z,14.10
2023-01-22T12:07:51.232Z,13.00
2023-01-22T12:11:06.342Z,10.15
2023-01-22T12:13:59.031Z,12.80
2023-01-22T12:16:33.021Z,10.50
2023-01-22T12:19:17.943Z,15.13
2023-01-22T12:21:59.248Z,17.25
2023-01-22T12:24:35.651Z,14.25
2023-01-22T12:27:11.139Z,12.65
2023-01-22T12:29:46.134Z,14.73
2023-01-22T12:32:19.751Z,12.75
2023-01-22T12:34:54.445Z,14.52
2023-01-22T12:37:32.181Z,11.95
2023-01-22T12:40:21.894Z,17.20
2023-01-22T12:43:03.065Z,14.40
2023-01-22T12:45:44.680Z,12.68
2023-01-22T12:48:28.147Z,11.07
2023-01-22T12:51:01.765Z,11.90
2023-01-22T12:53:36.630Z,16.73
2023-01-22T12:56:09.717Z,13.18
2023-01-22T12:58:46.016Z,17.80
2023-01-22T13:01:27.565Z,17.98
2023-01-22T13:04:03.818Z,16.23
2023-01-22T13:06:38.209Z,13.48
2023-01-22T13:09:27.813Z,14.50
2023-01-22T13:12:09.556Z,15.95
2023-01-22T13:14:44.415Z,14.77
2023-01-22T13:17:23.632Z,18.58
2023-01-22T13:20:00.133Z,17.40
2023-01-22T13:22:34.267Z,20.13
2023-01-22T13:25:06.429Z,15.63
2023-01-22T13:27:39.613Z,22.00
2023-01-22T13:30:16.524Z,20.00
2023-01-22T13:33:41.695Z,17.25
2023-01-22T13:36:17.278Z,24.80
2023-01-22T13:38:55.297Z,18.42
2023-01-22T13:41:37.170Z,15.00
2023-01-22T13:44:09.878Z,16.80
2023-01-22T13:46:41.911Z,20.55
2023-01-22T13:49:28.212Z,22.98
2023-01-22T13:52:06.837Z,17.95
2023-01-22T13:54:43.669Z,20.98
2023-01-22T13:57:21.834Z,21.20
2023-01-22T14:00:01.242Z,21.85
2023-01-22T14:02:35.962Z,18.88
2023-01-22T14:05:08.323Z,14.85
2023-01-22T14:07:41.856Z,19.88
2023-01-22T14:10:19.329Z,25.90
2023-01-22T14:13:02.378Z,26.30
2023-01-22T14:15:33.646Z,18.88
2023-01-22T14:18:19.296Z,23.27
2023-01-22T14:20:54.825Z,20.55
2023-01-22T14:23:26.810Z,22.05
2023-01-22T14:26:00.525Z,19.52
2023-01-22T14:28:33.998Z,25.00
2023-01-22T14:31:07.685Z,20.10
2023-01-22T14:33:39.244Z,19.23
2023-01-22T14:36:13.075Z,20.38
2023-01-22T14:38:45.902Z,18.25
2023-01-22T14:41:16.465Z,25.38
2023-01-22T14:44:11.322Z,26.50
2023-01-22T14:46:44.242Z,21.15
2023-01-22T14:49:17.405Z,20.10
2023-01-22T14:51:50.014Z,18.20
2023-01-22T14:54:22.825Z,18.48
2023-01-22T14:56:54.651Z,17.88
2023-01-22T14:59:28.096Z,19.13
2023-01-22T15:01:59.051Z,15.93
2023-01-22T15:04:30.575Z,23.38
2023-01-22T15:07:02.713Z,19.40
2023-01-22T15:09:41.625Z,25.17
2023-01-22T15:12:12.953Z,22.33
2023-01-22T15:14:48.452Z,22.60
2023-01-22T15:17:22.111Z,19.75
2023-01-22T15:19:53.995Z,20.80
2023-01-22T15:22:26.749Z,24.70
2023-01-22T15:24:57.131Z,20.17
2023-01-22T15:27:28.963Z,20.45
2023-01-22T15:30:07.355Z,22.27
2023-01-22T15:32:38.197Z,21.35
2023-01-22T15:35:10.310Z,21.67
2023-01-22T15:37:42.884Z,25.85
2023-01-22T15:40:17.037Z,22.90
2023-01-22T15:42:50.458Z,22.00
2023-01-22T15:45:27.519Z,18.83
2023-01-22T15:47:59.333Z,21.40
2023-01-22T15:50:30.761Z,18.98
2023-01-22T15:53:02.954Z,19.83
2023-01-22T15:55:34.565Z,19.05
2023-01-22T15:59:22.960Z,21.65
2023-01-22T16:01:56.402Z,25.67
2023-01-22T16:04:27.803Z,23.38
2023-01-22T16:07:00.971Z,20.20
2023-01-22T16:09:33.000Z,23.50
2023-01-22T16:12:04.946Z,22.65
2023-01-22T16:14:36.465Z,28.30
2023-01-22T16:17:11.933Z,24.38
2023-01-22T16:19:45.031Z,19.02
2023-01-22T16:22:15.566Z,21.00
2023-01-22T16:24:46.911Z,23.00
2023-01-22T16:27:17.944Z,18.58
2023-01-22T16:29:52.657Z,21.63
2023-01-22T16:32:25.636Z,19.88
2023-01-22T16:35:02.840Z,22.05
2023-01-22T16:37:34.818Z,24.00
2023-01-22T16:40:15.005Z,18.65
2023-01-22T16:43:00.555Z,19.45
2023-01-22T16:45:31.595Z,30.13
2023-01-22T16:48:11.064Z,27.65
2023-01-22T16:50:42.892Z,22.83
2023-01-22T16:53:12.886Z,22.23
2023-01-22T16:55:45.284Z,26.95
2023-01-22T16:58:19.288Z,23.25
2023-01-22T17:00:50.816Z,17.40
2023-01-22T17:03:22.896Z,20.50
2023-01-22T17:06:11.028Z,16.13
2023-01-22T17:08:42.205Z,20.73
2023-01-22T17:11:18.700Z,20.80
2023-01-22T17:13:51.052Z,21.33
2023-01-22T17:16:25.352Z,21.05
2023-01-22T17:19:00.710Z,24.23
2023-01-22T17:21:33.164Z,18.60
2023-01-22T17:24:08.777Z,20.90
2023-01-22T17:26:39.920Z,19.13
2023-01-22T17:29:14.655Z,20.23
2023-01-22T17:31:48.705Z,19.27
2023-01-22T17:34:24.727Z,22.13
2023-01-22T17:36:57.946Z,18.33
2023-01-22T17:39:29.366Z,24.40
2023-01-22T17:42:00.365Z,22.30
2023-01-22T17:44:35.335Z,21.48
2023-01-22T17:47:06.492Z,17.20
2023-01-22T17:49:46.343Z,21.40
2023-01-22T17:52:18.352Z,23.08
2023-01-22T17:54:49.239Z,19.15
2023-01-22T17:57:27.861Z,22.77
2023-01-22T17:59:58.952Z,19.52
2023-01-22T18:02:29.613Z,26.60
2023-01-22T18:05:02.034Z,18.42
2023-01-22T18:07:33.732Z,18.38
2023-01-22T18:11:00.131Z,22.00
2023-01-22T18:13:35.078Z,16.92
2023-01-22T18:16:08.724Z,18.15
2023-01-22T18:18:41.274Z,18.15
2023-01-22T18:21:17.088Z,20.80
2023-01-22T18:23:48.937Z,19.85
2023-01-22T18:26:27.383Z,21.33
2023-01-22T18:28:59.767Z,22.20
2023-01-22T18:31:32.713Z,16.25
2023-01-22T18:34:06.128Z,19.50
2023-01-22T18:36:40.152Z,21.48
2023-01-22T18:39:14.003Z,22.42
2023-01-22T18:41:47.324Z,24.02
2023-01-22T18:44:20.425Z,20.42
2023-01-22T18:46:53.916Z,18.85
2023-01-22T18:49:26.107Z,23.08
2023-01-22T18:52:01.500Z,19.38
2023-01-22T18:54:33.421Z,17.95
2023-01-22T18:57:05.574Z,17.55
2023-01-22T18:59:38.054Z,22.42
2023-01-22T19:02:14.500Z,17.85
2023-01-22T19:04:47.755Z,14.43
2023-01-22T19:07:22.357Z,21.17
2023-01-22T19:09:54.801Z,18.00
2023-01-22T19:12:25.765Z,25.15
2023-01-22T19:14:56.011Z,19.55
2023-01-22T19:17:28.816Z,20.35
2023-01-22T19:20:01.089Z,19.75
2023-01-22T19:22:33.434Z,23.30
2023-01-22T19:25:06.909Z,20.67
2023-01-22T19:27:37.771Z,20.40
2023-01-22T19:30:11.643Z,23.60
2023-01-22T19:32:45.487Z,24.63
2023-01-22T19:35:16.222Z,22.63
2023-01-22T19:37:49.479Z,24.17
2023-01-22T19:40:23.900Z,21.50
2023-01-22T19:43:51.436Z,23.80
2023-01-22T19:46:22.853Z,19.35
2023-01-22T19:48:55.922Z,21.95
2023-01-22T19:51:27.903Z,22.42
2023-01-22T19:54:03.140Z,23.42
2023-01-22T19:56:37.173Z,18.75
2023-01-22T19:59:13.026Z,22.38
2023-01-22T20:01:47.321Z,20.30
2023-01-22T20:04:24.387Z,18.00
2023-01-22T20:07:00.354Z,22.45
2023-01-22T20:09:37.826Z,20.90
2023-01-22T20:12:14.121Z,20.10
2023-01-22T20:14:46.119Z,17.00
2023-01-22T20:17:17.445Z,19.08
2023-01-22T20:19:48.051Z,27.23
2023-01-22T20:22:21.247Z,19.92
2023-01-22T20:24:54.787Z,22.77
2023-01-22T20:27:57.924Z,19.88
2023-01-22T20:30:34.013Z,20.20
2023-01-22T20:33:05.823Z,20.25
2023-01-22T20:35:45.196Z,23.05
2023-01-22T20:38:21.169Z,20.95
2023-01-22T20:41:46.233Z,21.20
2023-01-22T20:44:19.862Z,16.90
2023-01-22T20:46:50.328Z,21.48
2023-01-22T20:49:22.043Z,25.27
2023-01-22T20:51:52.615Z,21.70
2023-01-22T20:54:25.800Z,22.10
2023-01-22T20:57:03.673Z,21.45
2023-01-22T20:59:39.743Z,18.73
2023-01-22T21:02:13.459Z,19.27
2023-01-22T21:04:44.314Z,19.52
2023-01-22T21:07:15.000Z,17.00
2023-01-22T21:09:45.762Z,18.55
2023-01-22T21:16:42.673Z,22.17
2023-01-22T21:19:18.387Z,21.00
2023-01-22T21:21:51.104Z,21.73
2023-01-22T21:24:22.607Z,18.88
2023-01-22T21:26:53.018Z,16.92
2023-01-22T21:29:30.399Z,21.83
2023-01-22T21:32:04.926Z,20.17
2023-01-22T21:34:37.144Z,20.83
2023-01-22T21:37:09.603Z,16.88
2023-01-22T21:39:46.451Z,19.33
2023-01-22T21:42:35.650Z,20.17
2023-01-22T21:45:23.826Z,15.63
2023-01-22T21:47:57.160Z,18.05
2023-01-22T21:50:29.229Z,25.17
2023-01-22T21:52:59.944Z,23.77
2023-01-22T21:55:34.588Z,19.65
2023-01-22T21:58:08.792Z,21.95
2023-01-22T22:00:40.954Z,17.50
2023-01-22T22:03:19.456Z,17.70
2023-01-22T22:06:02.090Z,23.13
2023-01-22T22:08:36.725Z,21.30
2023-01-22T22:11:09.871Z,20.10
2023-01-22T22:13:40.977Z,19.38
2023-01-22T22:16:14.489Z,20.00
2023-01-22T22:18:46.541Z,16.52
2023-01-22T22:21:17.208Z,18.25
2023-01-22T22:23:52.958Z,25.60
2023-01-22T22:26:25.471Z,17.83
2023-01-22T22:28:55.993Z,18.02
2023-01-22T22:31:27.422Z,18.92
2023-01-22T22:34:01.137Z,25.17
2023-01-22T22:36:33.363Z,17.00
2023-01-22T22:39:07.160Z,16.63
2023-01-22T22:41:39.639Z,21.05
2023-01-22T22:44:12.073Z,20.77
2023-01-22T22:46:43.040Z,18.10
2023-01-22T22:49:17.520Z,23.08
2023-01-22T22:51:50.119Z,16.02
2023-01-22T22:54:23.047Z,14.45
2023-01-22T22:56:54.420Z,15.90
2023-01-22T22:59:25.823Z,18.98
2023-01-22T23:02:02.889Z,18.23
2023-01-22T23:04:38.335Z,17.27
2023-01-22T23:07:09.037Z,22.02
2023-01-22T23:09:41.604Z,20.75
2023-01-22T23:12:21.020Z,19.10
2023-01-22T23:14:52.049Z,18.48
2023-01-22T23:17:23.089Z,17.67
2023-01-22T23:19:59.955Z,21.58
2023-01-22T23:22:32.382Z,22.65
2023-01-22T23:25:03.492Z,21.70
2023-01-22T23:27:37.904Z,19.55
2023-01-22T23:30:09.581Z,19.65
2023-01-22T23:32:40.967Z,16.73
2023-01-22T23:35:15.543Z,18.67
2023-01-22T23:37:47.449Z,19.50
2023-01-22T23:40:19.818Z,18.42
2023-01-22T23:42:53.776Z,17.75
2023-01-22T23:45:30.891Z,20.08
2023-01-22T23:48:02.404Z,15.05
2023-01-22T23:50:36.538Z,18.98
2023-01-22T23:53:15.750Z,22.25
2023-01-22T23:55:46.567Z,19.33
2023-01-22T23:58:25.289Z,18.00
